sensor_id;sensor_type;location;lat;lon;timestamp;P1;durP1;ratioP1;P2;durP2;ratioP2
77872;SDS011;67068;52.116;4.440;2023-06-04T00:00:30;6.13;;;1.10;;
77872;SDS011;67068;52.116;4.440;2023-06-04T00:02:55;4.00;;;1.00;;
77872;SDS011;67068;52.116;4.440;2023-06-04T00:05:21;3.57;;;1.10;;
77872;SDS011;67068;52.116;4.440;2023-06-04T00:07:50;4.32;;;0.90;;
77872;SDS011;67068;52.116;4.440;2023-06-04T00:10:15;5.57;;;1.00;;
77872;SDS011;67068;52.116;4.440;2023-06-04T00:12:40;5.77;;;1.23;;
77872;SDS011;67068;52.116;4.440;2023-06-04T00:15:06;5.87;;;1.10;;
77872;SDS011;67068;52.116;4.440;2023-06-04T00:17:31;3.08;;;0.70;;
77872;SDS011;67068;52.116;4.440;2023-06-04T00:19:56;3.77;;;1.03;;
77872;SDS011;67068;52.116;4.440;2023-06-04T00:22:21;3.47;;;1.13;;
77872;SDS011;67068;52.116;4.440;2023-06-04T00:24:47;2.97;;;0.87;;
77872;SDS011;67068;52.116;4.440;2023-06-04T00:27:12;2.23;;;0.90;;
77872;SDS011;67068;52.116;4.440;2023-06-04T00:29:37;2.93;;;0.90;;
77872;SDS011;67068;52.116;4.440;2023-06-04T00:32:02;2.77;;;0.90;;
77872;SDS011;67068;52.116;4.440;2023-06-04T00:34:28;3.20;;;1.00;;
77872;SDS011;67068;52.116;4.440;2023-06-04T00:36:53;4.00;;;1.03;;
77872;SDS011;67068;52.116;4.440;2023-06-04T00:39:18;4.27;;;0.97;;
77872;SDS011;67068;52.116;4.440;2023-06-04T00:41:43;3.67;;;1.10;;
77872;SDS011;67068;52.116;4.440;2023-06-04T00:44:09;2.75;;;1.00;;
77872;SDS011;67068;52.116;4.440;2023-06-04T00:46:36;4.90;;;1.10;;
77872;SDS011;67068;52.116;4.440;2023-06-04T00:49:01;4.43;;;1.00;;
77872;SDS011;67068;52.116;4.440;2023-06-04T00:51:27;2.92;;;1.00;;
77872;SDS011;67068;52.116;4.440;2023-06-04T00:53:55;3.13;;;0.90;;
77872;SDS011;67068;52.116;4.440;2023-06-04T00:56:20;3.43;;;0.90;;
77872;SDS011;67068;52.116;4.440;2023-06-04T00:58:45;3.43;;;0.87;;
77872;SDS011;67068;52.116;4.440;2023-06-04T01:01:23;3.92;;;0.90;;
77872;SDS011;67068;52.116;4.440;2023-06-04T01:06:19;4.22;;;0.90;;
77872;SDS011;67068;52.116;4.440;2023-06-04T01:08:49;3.83;;;0.90;;
77872;SDS011;67068;52.116;4.440;2023-06-04T01:11:16;4.07;;;1.05;;
77872;SDS011;67068;52.116;4.440;2023-06-04T01:13:41;3.57;;;0.90;;
77872;SDS011;67068;52.116;4.440;2023-06-04T01:16:06;2.13;;;0.73;;
77872;SDS011;67068;52.116;4.440;2023-06-04T01:18:33;2.95;;;0.90;;
77872;SDS011;67068;52.116;4.440;2023-06-04T01:21:02;4.38;;;0.85;;
77872;SDS011;67068;52.116;4.440;2023-06-04T01:26:03;2.92;;;0.82;;
77872;SDS011;67068;52.116;4.440;2023-06-04T01:28:33;3.10;;;0.93;;
77872;SDS011;67068;52.116;4.440;2023-06-04T01:30:59;3.38;;;0.77;;
77872;SDS011;67068;52.116;4.440;2023-06-04T01:33:26;2.55;;;0.75;;
77872;SDS011;67068;52.116;4.440;2023-06-04T01:35:52;2.55;;;0.95;;
77872;SDS011;67068;52.116;4.440;2023-06-04T01:38:17;4.83;;;1.20;;
77872;SDS011;67068;52.116;4.440;2023-06-04T01:40:42;2.45;;;0.80;;
77872;SDS011;67068;52.116;4.440;2023-06-04T01:43:07;4.07;;;0.90;;
77872;SDS011;67068;52.116;4.440;2023-06-04T01:45:33;3.37;;;0.90;;
77872;SDS011;67068;52.116;4.440;2023-06-04T01:48:00;2.50;;;0.60;;
77872;SDS011;67068;52.116;4.440;2023-06-04T01:50:25;2.90;;;0.88;;
77872;SDS011;67068;52.116;4.440;2023-06-04T01:52:51;2.65;;;0.80;;
77872;SDS011;67068;52.116;4.440;2023-06-04T01:55:16;3.97;;;1.20;;
77872;SDS011;67068;52.116;4.440;2023-06-04T01:57:42;3.60;;;0.85;;
77872;SDS011;67068;52.116;4.440;2023-06-04T02:00:09;4.95;;;0.90;;
77872;SDS011;67068;52.116;4.440;2023-06-04T02:02:36;3.72;;;0.88;;
77872;SDS011;67068;52.116;4.440;2023-06-04T02:05:02;3.38;;;0.80;;
77872;SDS011;67068;52.116;4.440;2023-06-04T02:07:27;2.83;;;1.00;;
77872;SDS011;67068;52.116;4.440;2023-06-04T02:09:52;3.20;;;0.90;;
77872;SDS011;67068;52.116;4.440;2023-06-04T02:12:17;1.97;;;0.80;;
77872;SDS011;67068;52.116;4.440;2023-06-04T02:14:43;2.83;;;0.98;;
77872;SDS011;67068;52.116;4.440;2023-06-04T02:17:10;2.55;;;0.93;;
77872;SDS011;67068;52.116;4.440;2023-06-04T02:19:38;2.42;;;0.70;;
77872;SDS011;67068;52.116;4.440;2023-06-04T02:22:04;3.10;;;0.90;;
77872;SDS011;67068;52.116;4.440;2023-06-04T02:24:30;2.15;;;0.73;;
77872;SDS011;67068;52.116;4.440;2023-06-04T02:26:55;3.70;;;1.10;;
77872;SDS011;67068;52.116;4.440;2023-06-04T02:29:20;2.20;;;0.90;;
77872;SDS011;67068;52.116;4.440;2023-06-04T02:31:45;2.80;;;0.90;;
77872;SDS011;67068;52.116;4.440;2023-06-04T02:34:10;2.67;;;1.00;;
77872;SDS011;67068;52.116;4.440;2023-06-04T02:36:36;2.40;;;0.70;;
77872;SDS011;67068;52.116;4.440;2023-06-04T02:39:01;3.23;;;0.80;;
77872;SDS011;67068;52.116;4.440;2023-06-04T02:41:26;2.45;;;0.90;;
77872;SDS011;67068;52.116;4.440;2023-06-04T02:43:51;4.00;;;0.80;;
77872;SDS011;67068;52.116;4.440;2023-06-04T02:46:17;3.87;;;0.90;;
77872;SDS011;67068;52.116;4.440;2023-06-04T02:48:42;2.97;;;0.80;;
77872;SDS011;67068;52.116;4.440;2023-06-04T02:51:07;3.70;;;1.00;;
77872;SDS011;67068;52.116;4.440;2023-06-04T02:53:35;2.40;;;0.85;;
77872;SDS011;67068;52.116;4.440;2023-06-04T02:56:00;3.28;;;1.00;;
77872;SDS011;67068;52.116;4.440;2023-06-04T02:58:25;2.23;;;0.63;;
77872;SDS011;67068;52.116;4.440;2023-06-04T03:00:53;2.63;;;0.70;;
77872;SDS011;67068;52.116;4.440;2023-06-04T03:03:18;2.72;;;0.88;;
77872;SDS011;67068;52.116;4.440;2023-06-04T03:05:44;2.23;;;0.80;;
77872;SDS011;67068;52.116;4.440;2023-06-04T03:08:09;2.10;;;0.77;;
77872;SDS011;67068;52.116;4.440;2023-06-04T03:10:34;3.45;;;1.00;;
77872;SDS011;67068;52.116;4.440;2023-06-04T03:13:00;2.23;;;0.73;;
77872;SDS011;67068;52.116;4.440;2023-06-04T03:15:25;3.40;;;0.90;;
77872;SDS011;67068;52.116;4.440;2023-06-04T03:17:50;1.97;;;0.80;;
77872;SDS011;67068;52.116;4.440;2023-06-04T03:20:16;2.30;;;0.88;;
77872;SDS011;67068;52.116;4.440;2023-06-04T03:22:41;4.05;;;0.90;;
77872;SDS011;67068;52.116;4.440;2023-06-04T03:25:06;2.40;;;0.83;;
77872;SDS011;67068;52.116;4.440;2023-06-04T03:27:32;2.25;;;0.77;;
77872;SDS011;67068;52.116;4.440;2023-06-04T03:29:57;2.40;;;0.63;;
77872;SDS011;67068;52.116;4.440;2023-06-04T03:32:22;2.90;;;0.90;;
77872;SDS011;67068;52.116;4.440;2023-06-04T03:34:48;1.93;;;0.70;;
77872;SDS011;67068;52.116;4.440;2023-06-04T03:37:13;2.13;;;0.80;;
77872;SDS011;67068;52.116;4.440;2023-06-04T03:39:38;2.43;;;0.63;;
77872;SDS011;67068;52.116;4.440;2023-06-04T03:42:03;2.57;;;0.90;;
77872;SDS011;67068;52.116;4.440;2023-06-04T03:44:29;1.92;;;0.63;;
77872;SDS011;67068;52.116;4.440;2023-06-04T03:46:55;3.07;;;0.90;;
77872;SDS011;67068;52.116;4.440;2023-06-04T03:49:20;2.43;;;0.80;;
77872;SDS011;67068;52.116;4.440;2023-06-04T03:51:46;3.78;;;1.00;;
77872;SDS011;67068;52.116;4.440;2023-06-04T03:54:12;3.27;;;0.90;;
77872;SDS011;67068;52.116;4.440;2023-06-04T03:56:37;3.07;;;0.80;;
77872;SDS011;67068;52.116;4.440;2023-06-04T03:59:02;2.50;;;0.98;;
77872;SDS011;67068;52.116;4.440;2023-06-04T04:01:27;2.97;;;0.83;;
77872;SDS011;67068;52.116;4.440;2023-06-04T04:03:53;1.92;;;0.65;;
77872;SDS011;67068;52.116;4.440;2023-06-04T04:06:18;2.37;;;0.80;;
77872;SDS011;67068;52.116;4.440;2023-06-04T04:08:44;4.28;;;0.80;;
77872;SDS011;67068;52.116;4.440;2023-06-04T04:11:18;2.83;;;0.80;;
77872;SDS011;67068;52.116;4.440;2023-06-04T04:13:44;2.88;;;0.80;;
77872;SDS011;67068;52.116;4.440;2023-06-04T04:16:09;2.50;;;0.77;;
77872;SDS011;67068;52.116;4.440;2023-06-04T04:18:35;2.17;;;0.60;;
77872;SDS011;67068;52.116;4.440;2023-06-04T04:21:01;3.30;;;0.80;;
77872;SDS011;67068;52.116;4.440;2023-06-04T04:23:28;1.13;;;0.50;;
77872;SDS011;67068;52.116;4.440;2023-06-04T04:25:53;2.75;;;1.02;;
77872;SDS011;67068;52.116;4.440;2023-06-04T04:28:19;3.23;;;0.87;;
77872;SDS011;67068;52.116;4.440;2023-06-04T04:30:44;3.05;;;0.98;;
77872;SDS011;67068;52.116;4.440;2023-06-04T04:33:09;3.67;;;0.80;;
77872;SDS011;67068;52.116;4.440;2023-06-04T04:35:35;2.45;;;0.70;;
77872;SDS011;67068;52.116;4.440;2023-06-04T04:38:01;2.03;;;0.70;;
77872;SDS011;67068;52.116;4.440;2023-06-04T04:40:29;3.70;;;0.80;;
77872;SDS011;67068;52.116;4.440;2023-06-04T04:42:55;3.50;;;0.80;;
77872;SDS011;67068;52.116;4.440;2023-06-04T04:45:21;4.30;;;1.13;;
77872;SDS011;67068;52.116;4.440;2023-06-04T04:47:46;1.83;;;0.70;;
77872;SDS011;67068;52.116;4.440;2023-06-04T04:50:11;2.58;;;0.60;;
77872;SDS011;67068;52.116;4.440;2023-06-04T04:52:37;3.20;;;0.60;;
77872;SDS011;67068;52.116;4.440;2023-06-04T04:55:02;2.60;;;0.70;;
77872;SDS011;67068;52.116;4.440;2023-06-04T04:57:28;3.03;;;0.98;;
77872;SDS011;67068;52.116;4.440;2023-06-04T04:59:53;3.80;;;0.87;;
77872;SDS011;67068;52.116;4.440;2023-06-04T05:02:18;2.53;;;0.80;;
77872;SDS011;67068;52.116;4.440;2023-06-04T05:04:43;1.87;;;0.70;;
77872;SDS011;67068;52.116;4.440;2023-06-04T05:07:09;2.40;;;0.80;;
77872;SDS011;67068;52.116;4.440;2023-06-04T05:09:34;3.55;;;0.90;;
77872;SDS011;67068;52.116;4.440;2023-06-04T05:11:59;2.37;;;0.70;;
77872;SDS011;67068;52.116;4.440;2023-06-04T05:14:25;2.50;;;0.90;;
77872;SDS011;67068;52.116;4.440;2023-06-04T05:16:50;3.03;;;1.00;;
77872;SDS011;67068;52.116;4.440;2023-06-04T05:19:16;3.73;;;0.80;;
77872;SDS011;67068;52.116;4.440;2023-06-04T05:21:41;2.38;;;0.75;;
77872;SDS011;67068;52.116;4.440;2023-06-04T05:24:08;1.45;;;0.80;;
77872;SDS011;67068;52.116;4.440;2023-06-04T05:26:33;2.47;;;0.80;;
77872;SDS011;67068;52.116;4.440;2023-06-04T05:28:59;3.60;;;0.80;;
77872;SDS011;67068;52.116;4.440;2023-06-04T05:31:24;3.58;;;0.93;;
77872;SDS011;67068;52.116;4.440;2023-06-04T05:33:51;1.67;;;0.63;;
77872;SDS011;67068;52.116;4.440;2023-06-04T05:36:17;1.63;;;0.70;;
77872;SDS011;67068;52.116;4.440;2023-06-04T05:38:42;3.37;;;0.80;;
77872;SDS011;67068;52.116;4.440;2023-06-04T05:41:07;1.87;;;0.83;;
77872;SDS011;67068;52.116;4.440;2023-06-04T05:43:32;4.20;;;1.03;;
77872;SDS011;67068;52.116;4.440;2023-06-04T05:45:57;1.70;;;0.70;;
77872;SDS011;67068;52.116;4.440;2023-06-04T05:48:23;4.07;;;1.00;;
77872;SDS011;67068;52.116;4.440;2023-06-04T05:50:48;1.83;;;0.87;;
77872;SDS011;67068;52.116;4.440;2023-06-04T05:53:13;2.47;;;0.83;;
77872;SDS011;67068;52.116;4.440;2023-06-04T05:55:38;2.30;;;1.30;;
77872;SDS011;67068;52.116;4.440;2023-06-04T05:58:04;2.03;;;0.87;;
77872;SDS011;67068;52.116;4.440;2023-06-04T06:00:29;2.80;;;1.10;;
77872;SDS011;67068;52.116;4.440;2023-06-04T06:02:54;2.87;;;0.90;;
77872;SDS011;67068;52.116;4.440;2023-06-04T06:05:19;2.80;;;0.70;;
77872;SDS011;67068;52.116;4.440;2023-06-04T06:07:45;3.67;;;0.90;;
77872;SDS011;67068;52.116;4.440;2023-06-04T06:10:10;3.13;;;0.90;;
77872;SDS011;67068;52.116;4.440;2023-06-04T06:12:35;3.43;;;1.00;;
77872;SDS011;67068;52.116;4.440;2023-06-04T06:15:01;2.27;;;0.80;;
77872;SDS011;67068;52.116;4.440;2023-06-04T06:17:26;2.73;;;0.80;;
77872;SDS011;67068;52.116;4.440;2023-06-04T06:19:51;3.20;;;0.83;;
77872;SDS011;67068;52.116;4.440;2023-06-04T06:22:17;2.63;;;0.80;;
77872;SDS011;67068;52.116;4.440;2023-06-04T06:24:42;3.53;;;0.80;;
77872;SDS011;67068;52.116;4.440;2023-06-04T06:27:07;2.03;;;0.90;;
77872;SDS011;67068;52.116;4.440;2023-06-04T06:29:33;2.72;;;0.75;;
77872;SDS011;67068;52.116;4.440;2023-06-04T06:31:58;3.13;;;0.73;;
77872;SDS011;67068;52.116;4.440;2023-06-04T06:34:24;3.42;;;1.10;;
77872;SDS011;67068;52.116;4.440;2023-06-04T06:36:49;3.67;;;0.90;;
77872;SDS011;67068;52.116;4.440;2023-06-04T06:39:15;3.95;;;0.90;;
77872;SDS011;67068;52.116;4.440;2023-06-04T06:41:40;3.17;;;0.80;;
77872;SDS011;67068;52.116;4.440;2023-06-04T06:44:06;3.23;;;0.90;;
77872;SDS011;67068;52.116;4.440;2023-06-04T06:46:31;3.80;;;0.80;;
77872;SDS011;67068;52.116;4.440;2023-06-04T06:48:57;2.73;;;0.63;;
77872;SDS011;67068;52.116;4.440;2023-06-04T06:51:22;1.98;;;0.80;;
77872;SDS011;67068;52.116;4.440;2023-06-04T06:53:49;2.40;;;0.80;;
77872;SDS011;67068;52.116;4.440;2023-06-04T06:56:14;3.80;;;0.90;;
77872;SDS011;67068;52.116;4.440;2023-06-04T06:58:40;3.22;;;0.93;;
77872;SDS011;67068;52.116;4.440;2023-06-04T07:01:13;3.53;;;1.03;;
77872;SDS011;67068;52.116;4.440;2023-06-04T07:03:38;4.50;;;0.80;;
77872;SDS011;67068;52.116;4.440;2023-06-04T07:06:05;2.75;;;0.82;;
77872;SDS011;67068;52.116;4.440;2023-06-04T07:08:30;2.15;;;0.70;;
77872;SDS011;67068;52.116;4.440;2023-06-04T07:10:58;2.15;;;0.65;;
77872;SDS011;67068;52.116;4.440;2023-06-04T07:13:23;3.83;;;0.90;;
77872;SDS011;67068;52.116;4.440;2023-06-04T07:15:48;7.83;;;1.10;;
77872;SDS011;67068;52.116;4.440;2023-06-04T07:18:14;4.03;;;1.10;;
77872;SDS011;67068;52.116;4.440;2023-06-04T07:20:39;3.60;;;1.00;;
77872;SDS011;67068;52.116;4.440;2023-06-04T07:23:04;3.30;;;0.90;;
77872;SDS011;67068;52.116;4.440;2023-06-04T07:25:31;5.07;;;1.15;;
77872;SDS011;67068;52.116;4.440;2023-06-04T07:27:57;3.00;;;1.00;;
77872;SDS011;67068;52.116;4.440;2023-06-04T07:30:23;2.75;;;0.70;;
77872;SDS011;67068;52.116;4.440;2023-06-04T07:32:48;2.15;;;0.80;;
77872;SDS011;67068;52.116;4.440;2023-06-04T07:35:14;2.85;;;0.88;;
77872;SDS011;67068;52.116;4.440;2023-06-04T07:37:39;3.05;;;0.73;;
77872;SDS011;67068;52.116;4.440;2023-06-04T07:40:04;4.33;;;1.00;;
77872;SDS011;67068;52.116;4.440;2023-06-04T07:42:30;4.13;;;1.20;;
77872;SDS011;67068;52.116;4.440;2023-06-04T07:44:55;3.67;;;0.90;;
77872;SDS011;67068;52.116;4.440;2023-06-04T07:47:20;2.83;;;0.90;;
77872;SDS011;67068;52.116;4.440;2023-06-04T07:49:45;9.43;;;1.07;;
77872;SDS011;67068;52.116;4.440;2023-06-04T07:52:10;4.47;;;1.00;;
77872;SDS011;67068;52.116;4.440;2023-06-04T07:54:36;4.10;;;1.25;;
77872;SDS011;67068;52.116;4.440;2023-06-04T07:57:02;2.57;;;0.80;;
77872;SDS011;67068;52.116;4.440;2023-06-04T07:59:27;2.97;;;0.90;;
77872;SDS011;67068;52.116;4.440;2023-06-04T08:01:54;3.10;;;0.80;;
77872;SDS011;67068;52.116;4.440;2023-06-04T08:04:19;2.63;;;1.07;;
77872;SDS011;67068;52.116;4.440;2023-06-04T08:06:44;3.83;;;0.90;;
77872;SDS011;67068;52.116;4.440;2023-06-04T08:09:10;3.05;;;0.80;;
77872;SDS011;67068;52.116;4.440;2023-06-04T08:11:36;4.40;;;1.05;;
77872;SDS011;67068;52.116;4.440;2023-06-04T08:14:01;4.90;;;0.90;;
77872;SDS011;67068;52.116;4.440;2023-06-04T08:16:26;3.07;;;1.07;;
77872;SDS011;67068;52.116;4.440;2023-06-04T08:18:52;3.17;;;0.80;;
77872;SDS011;67068;52.116;4.440;2023-06-04T08:21:25;4.13;;;0.87;;
77872;SDS011;67068;52.116;4.440;2023-06-04T08:23:50;2.22;;;0.93;;
77872;SDS011;67068;52.116;4.440;2023-06-04T08:26:15;3.37;;;1.00;;
77872;SDS011;67068;52.116;4.440;2023-06-04T08:28:40;3.17;;;0.80;;
77872;SDS011;67068;52.116;4.440;2023-06-04T08:31:06;4.07;;;1.00;;
77872;SDS011;67068;52.116;4.440;2023-06-04T08:33:31;6.37;;;1.00;;
77872;SDS011;67068;52.116;4.440;2023-06-04T08:35:56;3.47;;;0.60;;
77872;SDS011;67068;52.116;4.440;2023-06-04T08:38:21;3.33;;;0.93;;
77872;SDS011;67068;52.116;4.440;2023-06-04T08:40:48;5.93;;;1.10;;
77872;SDS011;67068;52.116;4.440;2023-06-04T08:43:16;6.07;;;0.68;;
77872;SDS011;67068;52.116;4.440;2023-06-04T08:45:42;3.30;;;0.90;;
77872;SDS011;67068;52.116;4.440;2023-06-04T08:48:11;5.20;;;1.10;;
77872;SDS011;67068;52.116;4.440;2023-06-04T08:50:37;4.15;;;0.90;;
77872;SDS011;67068;52.116;4.440;2023-06-04T08:53:04;5.60;;;1.10;;
77872;SDS011;67068;52.116;4.440;2023-06-04T08:55:29;8.57;;;1.20;;
77872;SDS011;67068;52.116;4.440;2023-06-04T08:57:55;6.13;;;1.20;;
77872;SDS011;67068;52.116;4.440;2023-06-04T09:00:20;4.63;;;1.10;;
77872;SDS011;67068;52.116;4.440;2023-06-04T09:02:46;4.75;;;1.25;;
77872;SDS011;67068;52.116;4.440;2023-06-04T09:05:17;8.60;;;1.85;;
77872;SDS011;67068;52.116;4.440;2023-06-04T09:07:44;5.93;;;1.30;;
77872;SDS011;67068;52.116;4.440;2023-06-04T09:10:11;4.85;;;1.10;;
77872;SDS011;67068;52.116;4.440;2023-06-04T09:12:38;5.63;;;1.55;;
77872;SDS011;67068;52.116;4.440;2023-06-04T09:15:05;4.40;;;1.10;;
77872;SDS011;67068;52.116;4.440;2023-06-04T09:17:30;4.97;;;1.17;;
77872;SDS011;67068;52.116;4.440;2023-06-04T09:19:55;5.30;;;1.30;;
77872;SDS011;67068;52.116;4.440;2023-06-04T09:22:31;6.07;;;1.50;;
77872;SDS011;67068;52.116;4.440;2023-06-04T09:24:56;8.63;;;1.70;;
77872;SDS011;67068;52.116;4.440;2023-06-04T09:27:21;5.17;;;1.20;;
77872;SDS011;67068;52.116;4.440;2023-06-04T09:34:50;4.65;;;1.17;;
77872;SDS011;67068;52.116;4.440;2023-06-04T09:37:15;7.05;;;1.38;;
77872;SDS011;67068;52.116;4.440;2023-06-04T09:39:42;5.50;;;1.52;;
77872;SDS011;67068;52.116;4.440;2023-06-04T09:42:07;5.57;;;1.13;;
77872;SDS011;67068;52.116;4.440;2023-06-04T09:44:42;6.20;;;1.15;;
77872;SDS011;67068;52.116;4.440;2023-06-04T09:47:07;7.70;;;1.33;;
77872;SDS011;67068;52.116;4.440;2023-06-04T09:49:54;6.60;;;1.30;;
77872;SDS011;67068;52.116;4.440;2023-06-04T09:52:19;5.15;;;1.20;;
77872;SDS011;67068;52.116;4.440;2023-06-04T09:54:46;6.68;;;1.08;;
77872;SDS011;67068;52.116;4.440;2023-06-04T09:57:15;7.73;;;1.20;;
77872;SDS011;67068;52.116;4.440;2023-06-04T09:59:44;11.95;;;1.83;;
77872;SDS011;67068;52.116;4.440;2023-06-04T10:02:11;6.80;;;1.40;;
77872;SDS011;67068;52.116;4.440;2023-06-04T10:04:36;8.13;;;1.65;;
77872;SDS011;67068;52.116;4.440;2023-06-04T10:07:04;5.15;;;1.30;;
77872;SDS011;67068;52.116;4.440;2023-06-04T10:09:30;8.25;;;1.42;;
77872;SDS011;67068;52.116;4.440;2023-06-04T10:11:56;6.23;;;1.27;;
77872;SDS011;67068;52.116;4.440;2023-06-04T10:14:22;7.20;;;2.10;;
77872;SDS011;67068;52.116;4.440;2023-06-04T10:16:48;5.05;;;1.13;;
77872;SDS011;67068;52.116;4.440;2023-06-04T10:19:15;6.55;;;1.42;;
77872;SDS011;67068;52.116;4.440;2023-06-04T10:21:41;5.88;;;1.23;;
77872;SDS011;67068;52.116;4.440;2023-06-04T10:24:07;6.13;;;1.35;;
77872;SDS011;67068;52.116;4.440;2023-06-04T10:26:33;4.93;;;1.30;;
77872;SDS011;67068;52.116;4.440;2023-06-04T10:28:58;4.63;;;1.05;;
77872;SDS011;67068;52.116;4.440;2023-06-04T10:31:25;4.68;;;1.35;;
77872;SDS011;67068;52.116;4.440;2023-06-04T10:33:57;4.65;;;1.23;;
77872;SDS011;67068;52.116;4.440;2023-06-04T10:36:22;6.13;;;1.42;;
77872;SDS011;67068;52.116;4.440;2023-06-04T10:38:52;5.43;;;1.30;;
77872;SDS011;67068;52.116;4.440;2023-06-04T10:41:18;4.28;;;1.02;;
77872;SDS011;67068;52.116;4.440;2023-06-04T10:43:44;4.38;;;1.30;;
77872;SDS011;67068;52.116;4.440;2023-06-04T10:46:13;5.72;;;1.25;;
77872;SDS011;67068;52.116;4.440;2023-06-04T10:48:48;5.18;;;1.25;;
77872;SDS011;67068;52.116;4.440;2023-06-04T10:51:15;5.18;;;1.17;;
77872;SDS011;67068;52.116;4.440;2023-06-04T10:53:40;4.70;;;1.30;;
77872;SDS011;67068;52.116;4.440;2023-06-04T10:56:05;3.97;;;1.00;;
77872;SDS011;67068;52.116;4.440;2023-06-04T10:58:34;6.03;;;1.07;;
77872;SDS011;67068;52.116;4.440;2023-06-04T11:00:59;5.72;;;1.10;;
77872;SDS011;67068;52.116;4.440;2023-06-04T11:03:34;4.70;;;1.38;;
77872;SDS011;67068;52.116;4.440;2023-06-04T11:08:28;5.97;;;1.20;;
77872;SDS011;67068;52.116;4.440;2023-06-04T11:10:53;6.50;;;1.10;;
77872;SDS011;67068;52.116;4.440;2023-06-04T11:13:22;5.40;;;0.93;;
77872;SDS011;67068;52.116;4.440;2023-06-04T11:15:48;5.63;;;1.10;;
77872;SDS011;67068;52.116;4.440;2023-06-04T11:18:14;4.25;;;1.23;;
77872;SDS011;67068;52.116;4.440;2023-06-04T11:20:39;4.68;;;1.17;;
77872;SDS011;67068;52.116;4.440;2023-06-04T11:23:04;5.20;;;1.20;;
77872;SDS011;67068;52.116;4.440;2023-06-04T11:25:30;5.00;;;0.88;;
77872;SDS011;67068;52.116;4.440;2023-06-04T11:27:57;6.13;;;1.30;;
77872;SDS011;67068;52.116;4.440;2023-06-04T11:30:23;4.65;;;1.30;;
77872;SDS011;67068;52.116;4.440;2023-06-04T11:32:49;6.05;;;1.23;;
77872;SDS011;67068;52.116;4.440;2023-06-04T11:35:14;3.35;;;1.00;;
77872;SDS011;67068;52.116;4.440;2023-06-04T11:37:39;5.85;;;1.17;;
77872;SDS011;67068;52.116;4.440;2023-06-04T11:40:15;5.78;;;1.30;;
77872;SDS011;67068;52.116;4.440;2023-06-04T11:42:41;4.38;;;0.90;;
77872;SDS011;67068;52.116;4.440;2023-06-04T11:45:08;6.78;;;1.42;;
77872;SDS011;67068;52.116;4.440;2023-06-04T11:47:34;5.25;;;0.98;;
77872;SDS011;67068;52.116;4.440;2023-06-04T11:50:00;4.03;;;1.08;;
77872;SDS011;67068;52.116;4.440;2023-06-04T11:52:26;4.60;;;1.17;;
77872;SDS011;67068;52.116;4.440;2023-06-04T11:54:52;3.75;;;1.10;;
77872;SDS011;67068;52.116;4.440;2023-06-04T11:57:17;4.80;;;1.17;;
77872;SDS011;67068;52.116;4.440;2023-06-04T11:59:43;4.55;;;1.30;;
77872;SDS011;67068;52.116;4.440;2023-06-04T12:02:08;4.03;;;1.10;;
77872;SDS011;67068;52.116;4.440;2023-06-04T12:04:33;3.30;;;1.10;;
77872;SDS011;67068;52.116;4.440;2023-06-04T12:06:59;5.63;;;1.13;;
77872;SDS011;67068;52.116;4.440;2023-06-04T12:09:27;5.25;;;1.30;;
77872;SDS011;67068;52.116;4.440;2023-06-04T12:12:03;4.90;;;1.17;;
77872;SDS011;67068;52.116;4.440;2023-06-04T12:14:29;4.43;;;1.00;;
77872;SDS011;67068;52.116;4.440;2023-06-04T12:16:57;3.95;;;0.98;;
77872;SDS011;67068;52.116;4.440;2023-06-04T12:19:23;4.75;;;1.23;;
77872;SDS011;67068;52.116;4.440;2023-06-04T12:21:58;4.17;;;1.20;;
77872;SDS011;67068;52.116;4.440;2023-06-04T12:24:23;3.47;;;1.00;;
77872;SDS011;67068;52.116;4.440;2023-06-04T12:26:49;5.37;;;1.30;;
77872;SDS011;67068;52.116;4.440;2023-06-04T12:29:15;5.45;;;0.98;;
77872;SDS011;67068;52.116;4.440;2023-06-04T12:31:41;3.50;;;0.93;;
77872;SDS011;67068;52.116;4.440;2023-06-04T12:34:06;4.40;;;1.20;;
77872;SDS011;67068;52.116;4.440;2023-06-04T12:36:32;4.45;;;1.10;;
77872;SDS011;67068;52.116;4.440;2023-06-04T12:39:01;4.00;;;1.08;;
77872;SDS011;67068;52.116;4.440;2023-06-04T12:41:29;6.20;;;1.40;;
77872;SDS011;67068;52.116;4.440;2023-06-04T12:43:55;6.10;;;1.35;;
77872;SDS011;67068;52.116;4.440;2023-06-04T12:46:21;6.53;;;1.45;;
77872;SDS011;67068;52.116;4.440;2023-06-04T12:48:47;6.10;;;1.20;;
77872;SDS011;67068;52.116;4.440;2023-06-04T12:51:12;8.35;;;1.40;;
77872;SDS011;67068;52.116;4.440;2023-06-04T12:53:44;7.40;;;1.60;;
77872;SDS011;67068;52.116;4.440;2023-06-04T12:56:09;9.88;;;1.58;;
77872;SDS011;67068;52.116;4.440;2023-06-04T12:58:35;8.38;;;1.80;;
77872;SDS011;67068;52.116;4.440;2023-06-04T13:01:00;6.00;;;1.20;;
77872;SDS011;67068;52.116;4.440;2023-06-04T13:03:25;7.97;;;1.92;;
77872;SDS011;67068;52.116;4.440;2023-06-04T13:05:51;7.10;;;1.88;;
77872;SDS011;67068;52.116;4.440;2023-06-04T13:08:18;7.97;;;1.50;;
77872;SDS011;67068;52.116;4.440;2023-06-04T13:10:43;10.03;;;1.67;;
77872;SDS011;67068;52.116;4.440;2023-06-04T13:13:08;7.90;;;1.57;;
77872;SDS011;67068;52.116;4.440;2023-06-04T13:15:34;6.20;;;1.57;;
77872;SDS011;67068;52.116;4.440;2023-06-04T13:17:59;8.63;;;1.52;;
77872;SDS011;67068;52.116;4.440;2023-06-04T13:20:24;5.00;;;1.37;;
77872;SDS011;67068;52.116;4.440;2023-06-04T13:22:50;7.38;;;1.45;;
77872;SDS011;67068;52.116;4.440;2023-06-04T13:25:15;7.57;;;1.40;;
77872;SDS011;67068;52.116;4.440;2023-06-04T13:27:40;10.50;;;1.80;;
77872;SDS011;67068;52.116;4.440;2023-06-04T13:30:06;6.33;;;1.57;;
77872;SDS011;67068;52.116;4.440;2023-06-04T13:32:31;9.73;;;1.70;;
77872;SDS011;67068;52.116;4.440;2023-06-04T13:34:56;9.27;;;2.07;;
77872;SDS011;67068;52.116;4.440;2023-06-04T13:37:21;8.97;;;1.90;;
77872;SDS011;67068;52.116;4.440;2023-06-04T13:39:47;7.70;;;1.50;;
77872;SDS011;67068;52.116;4.440;2023-06-04T13:42:12;9.10;;;1.67;;
77872;SDS011;67068;52.116;4.440;2023-06-04T13:44:37;6.80;;;1.53;;
77872;SDS011;67068;52.116;4.440;2023-06-04T13:47:03;15.40;;;2.03;;
77872;SDS011;67068;52.116;4.440;2023-06-04T13:49:29;13.30;;;2.50;;
77872;SDS011;67068;52.116;4.440;2023-06-04T13:51:54;8.68;;;1.73;;
77872;SDS011;67068;52.116;4.440;2023-06-04T13:54:19;11.50;;;2.53;;
77872;SDS011;67068;52.116;4.440;2023-06-04T13:56:44;10.17;;;2.10;;
77872;SDS011;67068;52.116;4.440;2023-06-04T13:59:10;11.75;;;1.70;;
77872;SDS011;67068;52.116;4.440;2023-06-04T14:01:35;8.13;;;1.63;;
77872;SDS011;67068;52.116;4.440;2023-06-04T14:04:01;8.38;;;1.75;;
77872;SDS011;67068;52.116;4.440;2023-06-04T14:06:30;10.88;;;1.90;;
77872;SDS011;67068;52.116;4.440;2023-06-04T14:08:56;6.47;;;1.77;;
77872;SDS011;67068;52.116;4.440;2023-06-04T14:11:21;9.67;;;1.70;;
77872;SDS011;67068;52.116;4.440;2023-06-04T14:13:47;9.40;;;1.75;;
77872;SDS011;67068;52.116;4.440;2023-06-04T14:16:12;9.67;;;1.70;;
77872;SDS011;67068;52.116;4.440;2023-06-04T14:18:37;7.33;;;1.80;;
77872;SDS011;67068;52.116;4.440;2023-06-04T14:21:02;7.93;;;1.77;;
77872;SDS011;67068;52.116;4.440;2023-06-04T14:23:28;7.60;;;1.70;;
77872;SDS011;67068;52.116;4.440;2023-06-04T14:25:53;8.33;;;1.70;;
77872;SDS011;67068;52.116;4.440;2023-06-04T14:28:18;9.33;;;1.67;;
77872;SDS011;67068;52.116;4.440;2023-06-04T14:30:45;9.35;;;1.85;;
77872;SDS011;67068;52.116;4.440;2023-06-04T14:33:10;11.17;;;2.20;;
77872;SDS011;67068;52.116;4.440;2023-06-04T14:35:36;9.20;;;1.53;;
77872;SDS011;67068;52.116;4.440;2023-06-04T14:38:01;9.23;;;1.90;;
77872;SDS011;67068;52.116;4.440;2023-06-04T14:40:27;7.03;;;1.60;;
77872;SDS011;67068;52.116;4.440;2023-06-04T14:42:52;10.43;;;2.10;;
77872;SDS011;67068;52.116;4.440;2023-06-04T14:45:17;9.48;;;2.38;;
77872;SDS011;67068;52.116;4.440;2023-06-04T14:47:42;8.98;;;1.55;;
77872;SDS011;67068;52.116;4.440;2023-06-04T14:50:08;12.97;;;2.17;;
77872;SDS011;67068;52.116;4.440;2023-06-04T14:52:33;9.85;;;2.08;;